Main page
Satellite images 15-day forecastsClimateMarine weather Cyclones Lightning AirportsFAQ Newsletter About
Weather : Europe Africa North America South America Asia Australia-Oceania Others
Languages Contact

Singapore, Singapore

Military airbase Paya Lebar

latitude: 01-22N, longitude: 103-55E, elevation: 18 m


METAR: WSAP 260500Z 04010KT 9999 FEW020TCU BKN300 33/24 Q1011
TAF: WSAP 252300Z 2600/2706 VRB05KT 9999 FEW018CB SCT020

Time: 13:08 (05:08 UTC)

Current weather observation

The report was made 8 minutes ago, at 05:00 UTC
Wind 10 kt from the Northeast
Temperature 33°C
Humidity 59%
Pressure 1011 hPa
Visibility 10 km or more
Few clouds at a height of 2000 ft, Towering cumulus.
Broken clouds at a height of 30000 ft

Change units

Forecast

The report was made 6 hours and 8 minutes ago, at 23:00 UTC
Forecast valid from 26 at 00 UTC to 27 at 06 UTC
Wind 5 kt from variable directions
Visibility 10 km or more
Few clouds at a height of 1800 ft, Cumulonimbus.
Scattered clouds at a height of 2000 ft
The information on this site is subject to a disclaimer
Weather : Europe Africa North America South America Asia Australia-Oceania Others
Satellite images 15-day forecastsClimateMarine weather Cyclones Lightning AirportsFAQ Languages Contact Newsletter About